sensor_id;sensor_type;location;lat;lon;timestamp;P1;durP1;ratioP1;P2;durP2;ratioP2
51286;SDS011;37364;46.974;18.916;2023-05-29T00:02:06;10.98;;;7.00;;
51286;SDS011;37364;46.974;18.916;2023-05-29T00:04:38;35.63;;;7.32;;
51286;SDS011;37364;46.974;18.916;2023-05-29T00:07:11;11.40;;;6.80;;
51286;SDS011;37364;46.974;18.916;2023-05-29T00:09:41;13.82;;;7.80;;
51286;SDS011;37364;46.974;18.916;2023-05-29T00:12:12;13.88;;;6.95;;
51286;SDS011;37364;46.974;18.916;2023-05-29T00:14:42;12.77;;;7.35;;
51286;SDS011;37364;46.974;18.916;2023-05-29T00:17:12;13.45;;;7.10;;
51286;SDS011;37364;46.974;18.916;2023-05-29T00:19:45;17.50;;;7.90;;
51286;SDS011;37364;46.974;18.916;2023-05-29T00:22:15;17.23;;;8.63;;
51286;SDS011;37364;46.974;18.916;2023-05-29T00:24:46;16.75;;;7.28;;
51286;SDS011;37364;46.974;18.916;2023-05-29T00:27:16;20.27;;;7.78;;
51286;SDS011;37364;46.974;18.916;2023-05-29T00:29:46;11.90;;;7.60;;
51286;SDS011;37364;46.974;18.916;2023-05-29T00:32:16;14.82;;;7.38;;
51286;SDS011;37364;46.974;18.916;2023-05-29T00:34:49;16.60;;;8.07;;
51286;SDS011;37364;46.974;18.916;2023-05-29T00:37:20;18.33;;;7.85;;
51286;SDS011;37364;46.974;18.916;2023-05-29T00:39:51;23.55;;;7.97;;
51286;SDS011;37364;46.974;18.916;2023-05-29T00:42:21;19.45;;;8.05;;
51286;SDS011;37364;46.974;18.916;2023-05-29T00:44:52;25.48;;;9.43;;
51286;SDS011;37364;46.974;18.916;2023-05-29T00:47:22;16.98;;;7.63;;
51286;SDS011;37364;46.974;18.916;2023-05-29T00:49:56;13.13;;;7.53;;
51286;SDS011;37364;46.974;18.916;2023-05-29T00:52:26;26.90;;;8.02;;
51286;SDS011;37364;46.974;18.916;2023-05-29T00:54:57;14.20;;;7.70;;
51286;SDS011;37364;46.974;18.916;2023-05-29T00:57:29;14.30;;;7.47;;
51286;SDS011;37364;46.974;18.916;2023-05-29T00:59:59;27.88;;;9.63;;
51286;SDS011;37364;46.974;18.916;2023-05-29T01:02:34;26.05;;;9.35;;
51286;SDS011;37364;46.974;18.916;2023-05-29T01:05:09;13.90;;;8.13;;
51286;SDS011;37364;46.974;18.916;2023-05-29T01:07:39;22.27;;;9.20;;
51286;SDS011;37364;46.974;18.916;2023-05-29T01:10:09;19.77;;;10.60;;
51286;SDS011;37364;46.974;18.916;2023-05-29T01:12:42;19.20;;;10.45;;
51286;SDS011;37364;46.974;18.916;2023-05-29T01:15:22;22.60;;;10.98;;
51286;SDS011;37364;46.974;18.916;2023-05-29T01:21:03;19.10;;;10.95;;
51286;SDS011;37364;46.974;18.916;2023-05-29T01:23:51;17.65;;;10.60;;
51286;SDS011;37364;46.974;18.916;2023-05-29T01:26:45;27.17;;;11.63;;
51286;SDS011;37364;46.974;18.916;2023-05-29T01:29:18;22.70;;;11.48;;
51286;SDS011;37364;46.974;18.916;2023-05-29T01:31:51;14.27;;;9.43;;
51286;SDS011;37364;46.974;18.916;2023-05-29T01:34:22;17.73;;;9.85;;
51286;SDS011;37364;46.974;18.916;2023-05-29T01:36:52;25.73;;;10.63;;
51286;SDS011;37364;46.974;18.916;2023-05-29T01:39:22;20.05;;;10.70;;
51286;SDS011;37364;46.974;18.916;2023-05-29T01:41:56;22.17;;;9.98;;
51286;SDS011;37364;46.974;18.916;2023-05-29T01:44:28;20.15;;;9.13;;
51286;SDS011;37364;46.974;18.916;2023-05-29T01:46:59;15.48;;;10.07;;
51286;SDS011;37364;46.974;18.916;2023-05-29T01:49:30;17.67;;;10.27;;
51286;SDS011;37364;46.974;18.916;2023-05-29T01:52:01;18.83;;;10.20;;
51286;SDS011;37364;46.974;18.916;2023-05-29T01:54:31;21.83;;;8.88;;
51286;SDS011;37364;46.974;18.916;2023-05-29T01:57:04;25.13;;;8.45;;
51286;SDS011;37364;46.974;18.916;2023-05-29T01:59:35;36.53;;;9.82;;
51286;SDS011;37364;46.974;18.916;2023-05-29T02:02:07;15.95;;;8.45;;
51286;SDS011;37364;46.974;18.916;2023-05-29T02:04:38;21.55;;;9.10;;
51286;SDS011;37364;46.974;18.916;2023-05-29T02:07:08;12.85;;;9.25;;
51286;SDS011;37364;46.974;18.916;2023-05-29T02:09:38;15.40;;;9.60;;
51286;SDS011;37364;46.974;18.916;2023-05-29T02:12:11;22.95;;;9.73;;
51286;SDS011;37364;46.974;18.916;2023-05-29T02:14:41;19.90;;;9.97;;
51286;SDS011;37364;46.974;18.916;2023-05-29T02:17:13;14.43;;;9.32;;
51286;SDS011;37364;46.974;18.916;2023-05-29T02:19:46;18.38;;;10.10;;
51286;SDS011;37364;46.974;18.916;2023-05-29T02:22:16;13.18;;;8.73;;
51286;SDS011;37364;46.974;18.916;2023-05-29T02:24:47;21.10;;;9.68;;
51286;SDS011;37364;46.974;18.916;2023-05-29T02:27:20;14.57;;;8.50;;
51286;SDS011;37364;46.974;18.916;2023-05-29T02:29:50;26.25;;;9.25;;
51286;SDS011;37364;46.974;18.916;2023-05-29T02:32:20;16.90;;;10.65;;
51286;SDS011;37364;46.974;18.916;2023-05-29T02:34:53;18.90;;;9.70;;
51286;SDS011;37364;46.974;18.916;2023-05-29T02:37:23;14.68;;;9.70;;
51286;SDS011;37364;46.974;18.916;2023-05-29T02:39:53;20.40;;;10.10;;
51286;SDS011;37364;46.974;18.916;2023-05-29T02:42:26;16.75;;;9.25;;
51286;SDS011;37364;46.974;18.916;2023-05-29T02:44:56;15.60;;;10.43;;
51286;SDS011;37364;46.974;18.916;2023-05-29T02:47:26;16.13;;;9.82;;
51286;SDS011;37364;46.974;18.916;2023-05-29T02:49:57;15.18;;;9.27;;
51286;SDS011;37364;46.974;18.916;2023-05-29T02:52:28;23.00;;;8.68;;
51286;SDS011;37364;46.974;18.916;2023-05-29T02:54:58;16.95;;;9.15;;
51286;SDS011;37364;46.974;18.916;2023-05-29T02:57:32;30.60;;;10.30;;
51286;SDS011;37364;46.974;18.916;2023-05-29T03:00:03;19.85;;;9.07;;
51286;SDS011;37364;46.974;18.916;2023-05-29T03:02:35;16.17;;;8.40;;
51286;SDS011;37364;46.974;18.916;2023-05-29T03:05:06;16.85;;;9.02;;
51286;SDS011;37364;46.974;18.916;2023-05-29T03:07:37;26.98;;;9.50;;
51286;SDS011;37364;46.974;18.916;2023-05-29T03:10:08;19.00;;;9.00;;
51286;SDS011;37364;46.974;18.916;2023-05-29T03:12:42;16.80;;;9.15;;
51286;SDS011;37364;46.974;18.916;2023-05-29T03:15:14;18.73;;;9.88;;
51286;SDS011;37364;46.974;18.916;2023-05-29T03:17:47;16.02;;;9.50;;
51286;SDS011;37364;46.974;18.916;2023-05-29T03:20:23;14.02;;;9.15;;
51286;SDS011;37364;46.974;18.916;2023-05-29T03:22:57;15.88;;;9.75;;
51286;SDS011;37364;46.974;18.916;2023-05-29T03:25:28;21.05;;;8.55;;
51286;SDS011;37364;46.974;18.916;2023-05-29T03:28:01;20.27;;;8.95;;
51286;SDS011;37364;46.974;18.916;2023-05-29T03:30:32;23.67;;;9.07;;
51286;SDS011;37364;46.974;18.916;2023-05-29T03:33:02;14.63;;;9.20;;
51286;SDS011;37364;46.974;18.916;2023-05-29T03:35:55;32.03;;;8.68;;
51286;SDS011;37364;46.974;18.916;2023-05-29T03:38:26;12.98;;;8.55;;
51286;SDS011;37364;46.974;18.916;2023-05-29T03:40:58;17.50;;;9.18;;
51286;SDS011;37364;46.974;18.916;2023-05-29T03:43:31;16.83;;;8.57;;
51286;SDS011;37364;46.974;18.916;2023-05-29T03:46:01;14.90;;;9.65;;
51286;SDS011;37364;46.974;18.916;2023-05-29T03:48:34;11.20;;;8.43;;
51286;SDS011;37364;46.974;18.916;2023-05-29T03:51:04;16.65;;;9.00;;
51286;SDS011;37364;46.974;18.916;2023-05-29T03:53:36;32.83;;;8.75;;
51286;SDS011;37364;46.974;18.916;2023-05-29T03:56:07;15.05;;;8.57;;
51286;SDS011;37364;46.974;18.916;2023-05-29T03:58:40;13.13;;;7.90;;
51286;SDS011;37364;46.974;18.916;2023-05-29T04:01:12;12.48;;;8.38;;
51286;SDS011;37364;46.974;18.916;2023-05-29T04:03:42;14.18;;;9.45;;
51286;SDS011;37364;46.974;18.916;2023-05-29T04:06:13;24.67;;;8.75;;
51286;SDS011;37364;46.974;18.916;2023-05-29T04:08:44;15.55;;;7.95;;
51286;SDS011;37364;46.974;18.916;2023-05-29T04:11:15;15.60;;;8.52;;
51286;SDS011;37364;46.974;18.916;2023-05-29T04:13:50;13.23;;;7.10;;
51286;SDS011;37364;46.974;18.916;2023-05-29T04:16:20;23.47;;;8.20;;
51286;SDS011;37364;46.974;18.916;2023-05-29T04:18:50;16.10;;;8.63;;
51286;SDS011;37364;46.974;18.916;2023-05-29T04:21:23;13.60;;;7.47;;
51286;SDS011;37364;46.974;18.916;2023-05-29T04:23:54;12.35;;;7.45;;
51286;SDS011;37364;46.974;18.916;2023-05-29T04:26:24;20.05;;;8.30;;
51286;SDS011;37364;46.974;18.916;2023-05-29T04:28:57;16.98;;;7.93;;
51286;SDS011;37364;46.974;18.916;2023-05-29T04:31:29;11.25;;;7.68;;
51286;SDS011;37364;46.974;18.916;2023-05-29T04:34:00;17.88;;;8.00;;
51286;SDS011;37364;46.974;18.916;2023-05-29T04:36:31;12.68;;;6.95;;
51286;SDS011;37364;46.974;18.916;2023-05-29T04:39:11;13.63;;;7.03;;
51286;SDS011;37364;46.974;18.916;2023-05-29T04:41:42;11.98;;;6.85;;
51286;SDS011;37364;46.974;18.916;2023-05-29T04:44:20;12.18;;;6.93;;
51286;SDS011;37364;46.974;18.916;2023-05-29T04:46:53;16.48;;;7.28;;
51286;SDS011;37364;46.974;18.916;2023-05-29T04:49:24;19.15;;;8.40;;
51286;SDS011;37364;46.974;18.916;2023-05-29T04:51:54;18.02;;;7.50;;
51286;SDS011;37364;46.974;18.916;2023-05-29T04:54:27;17.83;;;7.50;;
51286;SDS011;37364;46.974;18.916;2023-05-29T04:56:59;12.45;;;6.68;;
51286;SDS011;37364;46.974;18.916;2023-05-29T04:59:35;17.95;;;6.13;;
51286;SDS011;37364;46.974;18.916;2023-05-29T05:02:06;9.45;;;6.35;;
51286;SDS011;37364;46.974;18.916;2023-05-29T05:04:36;13.02;;;6.30;;
51286;SDS011;37364;46.974;18.916;2023-05-29T05:07:06;12.05;;;6.00;;
51286;SDS011;37364;46.974;18.916;2023-05-29T05:09:36;12.48;;;7.13;;
51286;SDS011;37364;46.974;18.916;2023-05-29T05:12:09;19.13;;;5.67;;
51286;SDS011;37364;46.974;18.916;2023-05-29T05:14:42;22.63;;;6.95;;
51286;SDS011;37364;46.974;18.916;2023-05-29T05:17:12;13.18;;;6.55;;
51286;SDS011;37364;46.974;18.916;2023-05-29T05:19:42;19.95;;;6.40;;
51286;SDS011;37364;46.974;18.916;2023-05-29T05:22:12;17.15;;;5.85;;
51286;SDS011;37364;46.974;18.916;2023-05-29T05:24:43;13.90;;;6.57;;
51286;SDS011;37364;46.974;18.916;2023-05-29T05:27:13;14.95;;;5.70;;
51286;SDS011;37364;46.974;18.916;2023-05-29T05:29:46;10.45;;;7.05;;
51286;SDS011;37364;46.974;18.916;2023-05-29T05:32:16;10.60;;;5.95;;
51286;SDS011;37364;46.974;18.916;2023-05-29T05:34:54;24.08;;;6.45;;
51286;SDS011;37364;46.974;18.916;2023-05-29T05:37:25;12.95;;;6.68;;
51286;SDS011;37364;46.974;18.916;2023-05-29T05:39:56;9.73;;;6.10;;
51286;SDS011;37364;46.974;18.916;2023-05-29T05:42:29;14.50;;;6.53;;
51286;SDS011;37364;46.974;18.916;2023-05-29T05:45:06;8.25;;;5.20;;
51286;SDS011;37364;46.974;18.916;2023-05-29T05:47:39;10.32;;;6.00;;
51286;SDS011;37364;46.974;18.916;2023-05-29T05:50:10;16.00;;;5.55;;
51286;SDS011;37364;46.974;18.916;2023-05-29T05:52:42;12.13;;;6.80;;
51286;SDS011;37364;46.974;18.916;2023-05-29T05:55:12;24.30;;;6.30;;
51286;SDS011;37364;46.974;18.916;2023-05-29T05:57:43;19.17;;;6.68;;
51286;SDS011;37364;46.974;18.916;2023-05-29T06:00:16;14.15;;;6.10;;
51286;SDS011;37364;46.974;18.916;2023-05-29T06:02:47;15.23;;;6.68;;
51286;SDS011;37364;46.974;18.916;2023-05-29T06:05:30;12.90;;;7.47;;
51286;SDS011;37364;46.974;18.916;2023-05-29T06:08:03;19.60;;;7.30;;
51286;SDS011;37364;46.974;18.916;2023-05-29T06:10:35;15.68;;;7.35;;
51286;SDS011;37364;46.974;18.916;2023-05-29T06:13:05;12.55;;;5.60;;
51286;SDS011;37364;46.974;18.916;2023-05-29T06:15:47;20.02;;;6.63;;
51286;SDS011;37364;46.974;18.916;2023-05-29T06:20:47;16.88;;;6.15;;
51286;SDS011;37364;46.974;18.916;2023-05-29T06:23:18;18.35;;;6.47;;
51286;SDS011;37364;46.974;18.916;2023-05-29T06:25:49;16.85;;;6.75;;
51286;SDS011;37364;46.974;18.916;2023-05-29T06:28:19;17.75;;;5.65;;
51286;SDS011;37364;46.974;18.916;2023-05-29T06:30:52;10.93;;;6.07;;
51286;SDS011;37364;46.974;18.916;2023-05-29T06:33:23;10.90;;;6.53;;
51286;SDS011;37364;46.974;18.916;2023-05-29T06:35:53;13.50;;;5.97;;
51286;SDS011;37364;46.974;18.916;2023-05-29T06:38:26;16.63;;;6.87;;
51286;SDS011;37364;46.974;18.916;2023-05-29T06:40:57;10.18;;;6.05;;
51286;SDS011;37364;46.974;18.916;2023-05-29T06:43:28;21.92;;;6.68;;
51286;SDS011;37364;46.974;18.916;2023-05-29T06:46:02;12.25;;;6.50;;
51286;SDS011;37364;46.974;18.916;2023-05-29T06:48:32;14.68;;;6.63;;
51286;SDS011;37364;46.974;18.916;2023-05-29T06:51:03;15.43;;;7.45;;
51286;SDS011;37364;46.974;18.916;2023-05-29T06:53:53;14.75;;;6.85;;
51286;SDS011;37364;46.974;18.916;2023-05-29T06:56:26;16.80;;;5.85;;
51286;SDS011;37364;46.974;18.916;2023-05-29T06:58:57;14.45;;;6.60;;
51286;SDS011;37364;46.974;18.916;2023-05-29T07:01:34;22.73;;;6.93;;
51286;SDS011;37364;46.974;18.916;2023-05-29T07:04:05;14.05;;;7.13;;
51286;SDS011;37364;46.974;18.916;2023-05-29T07:06:36;20.80;;;7.43;;
51286;SDS011;37364;46.974;18.916;2023-05-29T07:09:06;12.77;;;6.32;;
51286;SDS011;37364;46.974;18.916;2023-05-29T07:11:37;14.40;;;7.38;;
51286;SDS011;37364;46.974;18.916;2023-05-29T07:14:07;9.75;;;5.82;;
51286;SDS011;37364;46.974;18.916;2023-05-29T07:16:41;10.77;;;6.35;;
51286;SDS011;37364;46.974;18.916;2023-05-29T07:19:12;19.40;;;7.05;;
51286;SDS011;37364;46.974;18.916;2023-05-29T07:21:49;11.07;;;7.15;;
51286;SDS011;37364;46.974;18.916;2023-05-29T07:24:21;11.05;;;6.68;;
51286;SDS011;37364;46.974;18.916;2023-05-29T07:26:53;21.73;;;7.20;;
51286;SDS011;37364;46.974;18.916;2023-05-29T07:29:31;12.38;;;7.18;;
51286;SDS011;37364;46.974;18.916;2023-05-29T07:32:10;15.73;;;7.43;;
51286;SDS011;37364;46.974;18.916;2023-05-29T07:37:14;11.95;;;6.05;;
51286;SDS011;37364;46.974;18.916;2023-05-29T07:39:48;12.57;;;7.57;;
51286;SDS011;37364;46.974;18.916;2023-05-29T07:42:37;14.02;;;7.70;;
51286;SDS011;37364;46.974;18.916;2023-05-29T07:47:44;9.65;;;6.55;;
51286;SDS011;37364;46.974;18.916;2023-05-29T07:50:15;16.17;;;7.35;;
51286;SDS011;37364;46.974;18.916;2023-05-29T07:52:51;10.32;;;6.63;;
51286;SDS011;37364;46.974;18.916;2023-05-29T07:55:23;11.52;;;6.88;;
51286;SDS011;37364;46.974;18.916;2023-05-29T07:57:55;26.60;;;6.60;;
51286;SDS011;37364;46.974;18.916;2023-05-29T08:00:26;18.20;;;7.43;;
51286;SDS011;37364;46.974;18.916;2023-05-29T08:03:00;16.65;;;5.85;;
51286;SDS011;37364;46.974;18.916;2023-05-29T08:05:31;9.45;;;6.15;;
51286;SDS011;37364;46.974;18.916;2023-05-29T08:08:06;18.30;;;6.40;;
51286;SDS011;37364;46.974;18.916;2023-05-29T08:10:41;12.15;;;5.97;;
51286;SDS011;37364;46.974;18.916;2023-05-29T08:13:12;12.35;;;5.82;;
51286;SDS011;37364;46.974;18.916;2023-05-29T08:15:44;11.32;;;5.32;;
51286;SDS011;37364;46.974;18.916;2023-05-29T08:18:19;21.10;;;6.25;;
51286;SDS011;37364;46.974;18.916;2023-05-29T08:20:49;16.48;;;5.97;;
51286;SDS011;37364;46.974;18.916;2023-05-29T08:23:20;10.40;;;5.65;;
51286;SDS011;37364;46.974;18.916;2023-05-29T08:25:50;12.50;;;6.05;;
51286;SDS011;37364;46.974;18.916;2023-05-29T08:28:21;11.45;;;5.32;;
51286;SDS011;37364;46.974;18.916;2023-05-29T08:30:53;14.68;;;5.50;;
51286;SDS011;37364;46.974;18.916;2023-05-29T08:33:26;15.27;;;5.80;;
51286;SDS011;37364;46.974;18.916;2023-05-29T08:35:59;14.05;;;5.50;;
51286;SDS011;37364;46.974;18.916;2023-05-29T08:38:30;21.40;;;5.55;;
51286;SDS011;37364;46.974;18.916;2023-05-29T08:41:00;19.45;;;5.45;;
51286;SDS011;37364;46.974;18.916;2023-05-29T08:43:31;12.10;;;5.93;;
51286;SDS011;37364;46.974;18.916;2023-05-29T08:46:02;19.58;;;6.00;;
51286;SDS011;37364;46.974;18.916;2023-05-29T08:48:36;10.27;;;6.35;;
51286;SDS011;37364;46.974;18.916;2023-05-29T08:51:09;11.52;;;6.22;;
51286;SDS011;37364;46.974;18.916;2023-05-29T08:53:40;13.52;;;6.22;;
51286;SDS011;37364;46.974;18.916;2023-05-29T08:56:12;10.30;;;6.05;;
51286;SDS011;37364;46.974;18.916;2023-05-29T08:59:00;11.98;;;5.47;;
51286;SDS011;37364;46.974;18.916;2023-05-29T09:01:33;12.35;;;6.75;;
51286;SDS011;37364;46.974;18.916;2023-05-29T09:04:08;10.80;;;6.97;;
51286;SDS011;37364;46.974;18.916;2023-05-29T09:06:39;13.05;;;7.70;;
51286;SDS011;37364;46.974;18.916;2023-05-29T09:09:10;15.82;;;6.10;;
51286;SDS011;37364;46.974;18.916;2023-05-29T09:11:43;18.25;;;6.28;;
51286;SDS011;37364;46.974;18.916;2023-05-29T09:17:04;12.02;;;6.05;;
51286;SDS011;37364;46.974;18.916;2023-05-29T09:19:38;9.70;;;5.65;;
51286;SDS011;37364;46.974;18.916;2023-05-29T09:22:11;19.02;;;6.13;;
51286;SDS011;37364;46.974;18.916;2023-05-29T09:24:45;9.75;;;5.95;;
51286;SDS011;37364;46.974;18.916;2023-05-29T09:27:17;13.18;;;6.38;;
51286;SDS011;37364;46.974;18.916;2023-05-29T09:29:48;13.95;;;6.57;;
51286;SDS011;37364;46.974;18.916;2023-05-29T09:32:18;9.23;;;5.82;;
51286;SDS011;37364;46.974;18.916;2023-05-29T09:34:52;9.70;;;5.13;;
51286;SDS011;37364;46.974;18.916;2023-05-29T09:37:23;18.13;;;6.78;;
51286;SDS011;37364;46.974;18.916;2023-05-29T09:39:53;9.05;;;5.25;;
51286;SDS011;37364;46.974;18.916;2023-05-29T09:42:23;10.30;;;5.45;;
51286;SDS011;37364;46.974;18.916;2023-05-29T09:44:54;10.18;;;6.35;;
51286;SDS011;37364;46.974;18.916;2023-05-29T09:47:24;15.75;;;6.22;;
51286;SDS011;37364;46.974;18.916;2023-05-29T09:49:59;13.43;;;6.22;;
51286;SDS011;37364;46.974;18.916;2023-05-29T09:52:30;11.95;;;6.32;;
51286;SDS011;37364;46.974;18.916;2023-05-29T09:55:06;12.35;;;6.25;;
51286;SDS011;37364;46.974;18.916;2023-05-29T09:57:37;11.77;;;6.53;;
51286;SDS011;37364;46.974;18.916;2023-05-29T10:00:09;11.60;;;6.15;;
51286;SDS011;37364;46.974;18.916;2023-05-29T10:02:41;14.90;;;6.27;;
51286;SDS011;37364;46.974;18.916;2023-05-29T10:05:14;10.45;;;6.57;;
51286;SDS011;37364;46.974;18.916;2023-05-29T10:07:46;8.48;;;6.00;;
51286;SDS011;37364;46.974;18.916;2023-05-29T10:10:20;7.97;;;6.28;;
51286;SDS011;37364;46.974;18.916;2023-05-29T10:12:51;13.68;;;6.43;;
51286;SDS011;37364;46.974;18.916;2023-05-29T10:15:23;12.38;;;6.07;;
51286;SDS011;37364;46.974;18.916;2023-05-29T10:17:59;17.80;;;8.40;;
51286;SDS011;37364;46.974;18.916;2023-05-29T10:20:34;20.38;;;7.75;;
51286;SDS011;37364;46.974;18.916;2023-05-29T10:25:36;10.60;;;5.90;;
51286;SDS011;37364;46.974;18.916;2023-05-29T10:28:07;11.43;;;6.57;;
51286;SDS011;37364;46.974;18.916;2023-05-29T10:30:37;12.73;;;6.90;;
51286;SDS011;37364;46.974;18.916;2023-05-29T10:33:20;16.83;;;6.80;;
51286;SDS011;37364;46.974;18.916;2023-05-29T10:36:07;13.88;;;6.25;;
51286;SDS011;37364;46.974;18.916;2023-05-29T10:38:44;11.10;;;6.20;;
51286;SDS011;37364;46.974;18.916;2023-05-29T10:41:31;19.10;;;5.63;;
51286;SDS011;37364;46.974;18.916;2023-05-29T10:47:12;9.70;;;5.90;;
51286;SDS011;37364;46.974;18.916;2023-05-29T10:49:52;12.80;;;5.82;;
51286;SDS011;37364;46.974;18.916;2023-05-29T10:52:33;22.23;;;6.88;;
51286;SDS011;37364;46.974;18.916;2023-05-29T10:55:03;10.52;;;6.50;;
51286;SDS011;37364;46.974;18.916;2023-05-29T10:57:34;12.60;;;5.93;;
51286;SDS011;37364;46.974;18.916;2023-05-29T11:00:05;16.70;;;6.70;;
51286;SDS011;37364;46.974;18.916;2023-05-29T11:02:39;13.63;;;6.50;;
51286;SDS011;37364;46.974;18.916;2023-05-29T11:05:19;8.98;;;5.22;;
51286;SDS011;37364;46.974;18.916;2023-05-29T11:07:55;8.45;;;5.57;;
51286;SDS011;37364;46.974;18.916;2023-05-29T11:13:27;8.40;;;5.43;;
51286;SDS011;37364;46.974;18.916;2023-05-29T11:16:11;8.88;;;4.55;;
51286;SDS011;37364;46.974;18.916;2023-05-29T11:18:43;6.38;;;4.60;;
51286;SDS011;37364;46.974;18.916;2023-05-29T11:24:05;5.93;;;4.15;;
51286;SDS011;37364;46.974;18.916;2023-05-29T11:26:40;7.70;;;4.32;;
51286;SDS011;37364;46.974;18.916;2023-05-29T11:29:14;8.75;;;3.85;;
51286;SDS011;37364;46.974;18.916;2023-05-29T11:31:45;8.98;;;4.03;;
51286;SDS011;37364;46.974;18.916;2023-05-29T11:34:15;6.38;;;4.10;;
51286;SDS011;37364;46.974;18.916;2023-05-29T11:36:46;5.95;;;3.83;;
51286;SDS011;37364;46.974;18.916;2023-05-29T11:39:19;4.65;;;3.42;;
51286;SDS011;37364;46.974;18.916;2023-05-29T11:41:50;10.82;;;4.03;;
51286;SDS011;37364;46.974;18.916;2023-05-29T11:44:23;7.38;;;4.10;;
51286;SDS011;37364;46.974;18.916;2023-05-29T11:47:00;4.15;;;3.78;;
51286;SDS011;37364;46.974;18.916;2023-05-29T11:49:32;13.10;;;4.25;;
51286;SDS011;37364;46.974;18.916;2023-05-29T11:52:07;6.95;;;4.15;;
51286;SDS011;37364;46.974;18.916;2023-05-29T11:54:43;4.55;;;3.42;;
51286;SDS011;37364;46.974;18.916;2023-05-29T11:57:17;6.75;;;3.60;;
51286;SDS011;37364;46.974;18.916;2023-05-29T11:59:48;9.52;;;3.50;;
51286;SDS011;37364;46.974;18.916;2023-05-29T12:02:25;7.05;;;3.85;;
51286;SDS011;37364;46.974;18.916;2023-05-29T12:05:00;6.43;;;3.42;;
51286;SDS011;37364;46.974;18.916;2023-05-29T12:07:31;7.47;;;3.50;;
51286;SDS011;37364;46.974;18.916;2023-05-29T12:10:14;3.58;;;3.17;;
51286;SDS011;37364;46.974;18.916;2023-05-29T12:12:50;7.18;;;3.60;;
51286;SDS011;37364;46.974;18.916;2023-05-29T12:15:21;6.38;;;3.42;;
51286;SDS011;37364;46.974;18.916;2023-05-29T12:17:55;3.83;;;2.85;;
51286;SDS011;37364;46.974;18.916;2023-05-29T12:20:25;11.43;;;3.22;;
51286;SDS011;37364;46.974;18.916;2023-05-29T12:22:58;10.45;;;2.88;;
51286;SDS011;37364;46.974;18.916;2023-05-29T12:25:35;7.50;;;2.55;;
51286;SDS011;37364;46.974;18.916;2023-05-29T12:28:06;4.45;;;3.00;;
51286;SDS011;37364;46.974;18.916;2023-05-29T12:30:38;3.28;;;2.60;;
51286;SDS011;37364;46.974;18.916;2023-05-29T12:33:16;3.25;;;2.58;;
51286;SDS011;37364;46.974;18.916;2023-05-29T12:36:00;8.52;;;2.75;;
51286;SDS011;37364;46.974;18.916;2023-05-29T12:38:31;2.83;;;2.58;;
51286;SDS011;37364;46.974;18.916;2023-05-29T12:41:05;4.03;;;2.42;;
51286;SDS011;37364;46.974;18.916;2023-05-29T12:43:36;3.28;;;2.78;;
51286;SDS011;37364;46.974;18.916;2023-05-29T12:46:06;4.35;;;2.88;;
51286;SDS011;37364;46.974;18.916;2023-05-29T12:48:38;3.97;;;2.33;;
51286;SDS011;37364;46.974;18.916;2023-05-29T12:51:08;5.22;;;2.33;;
51286;SDS011;37364;46.974;18.916;2023-05-29T12:53:43;3.92;;;2.72;;
51286;SDS011;37364;46.974;18.916;2023-05-29T12:56:35;2.30;;;2.15;;
51286;SDS011;37364;46.974;18.916;2023-05-29T12:59:06;4.78;;;2.67;;
51286;SDS011;37364;46.974;18.916;2023-05-29T13:01:37;3.00;;;2.03;;
51286;SDS011;37364;46.974;18.916;2023-05-29T13:04:09;2.47;;;2.28;;
51286;SDS011;37364;46.974;18.916;2023-05-29T13:06:40;4.40;;;2.50;;
51286;SDS011;37364;46.974;18.916;2023-05-29T13:09:10;4.13;;;2.63;;
51286;SDS011;37364;46.974;18.916;2023-05-29T13:11:43;3.83;;;2.20;;
51286;SDS011;37364;46.974;18.916;2023-05-29T13:14:13;5.38;;;2.50;;
51286;SDS011;37364;46.974;18.916;2023-05-29T13:16:43;2.95;;;2.28;;
51286;SDS011;37364;46.974;18.916;2023-05-29T13:19:13;11.02;;;2.45;;
51286;SDS011;37364;46.974;18.916;2023-05-29T13:21:44;2.53;;;2.08;;
51286;SDS011;37364;46.974;18.916;2023-05-29T13:24:15;4.45;;;2.25;;
51286;SDS011;37364;46.974;18.916;2023-05-29T13:26:48;3.83;;;2.42;;
51286;SDS011;37364;46.974;18.916;2023-05-29T13:29:19;8.15;;;2.67;;
51286;SDS011;37364;46.974;18.916;2023-05-29T13:31:49;4.63;;;2.65;;
51286;SDS011;37364;46.974;18.916;2023-05-29T13:34:20;3.83;;;2.70;;
51286;SDS011;37364;46.974;18.916;2023-05-29T13:36:52;2.40;;;2.17;;
51286;SDS011;37364;46.974;18.916;2023-05-29T13:39:22;4.57;;;2.35;;
51286;SDS011;37364;46.974;18.916;2023-05-29T13:41:55;7.15;;;3.13;;
51286;SDS011;37364;46.974;18.916;2023-05-29T13:44:28;5.38;;;2.17;;
51286;SDS011;37364;46.974;18.916;2023-05-29T13:46:58;3.70;;;2.65;;
51286;SDS011;37364;46.974;18.916;2023-05-29T13:49:28;2.08;;;1.98;;
51286;SDS011;37364;46.974;18.916;2023-05-29T13:51:58;4.60;;;2.65;;
51286;SDS011;37364;46.974;18.916;2023-05-29T13:54:29;4.55;;;2.40;;
51286;SDS011;37364;46.974;18.916;2023-05-29T13:57:05;5.97;;;2.90;;
51286;SDS011;37364;46.974;18.916;2023-05-29T13:59:36;4.38;;;2.50;;
51286;SDS011;37364;46.974;18.916;2023-05-29T14:02:06;6.28;;;2.80;;
51286;SDS011;37364;46.974;18.916;2023-05-29T14:04:39;3.15;;;2.63;;
51286;SDS011;37364;46.974;18.916;2023-05-29T14:07:09;3.40;;;2.70;;
51286;SDS011;37364;46.974;18.916;2023-05-29T14:09:39;2.55;;;2.35;;
51286;SDS011;37364;46.974;18.916;2023-05-29T14:12:12;2.85;;;2.17;;
51286;SDS011;37364;46.974;18.916;2023-05-29T14:14:42;3.42;;;2.53;;
51286;SDS011;37364;46.974;18.916;2023-05-29T14:17:13;2.42;;;2.30;;
51286;SDS011;37364;46.974;18.916;2023-05-29T14:19:44;2.90;;;2.63;;
51286;SDS011;37364;46.974;18.916;2023-05-29T14:22:14;3.65;;;2.53;;
51286;SDS011;37364;46.974;18.916;2023-05-29T14:24:44;3.97;;;2.45;;
51286;SDS011;37364;46.974;18.916;2023-05-29T14:27:17;4.47;;;2.60;;
51286;SDS011;37364;46.974;18.916;2023-05-29T14:29:49;5.35;;;3.20;;
51286;SDS011;37364;46.974;18.916;2023-05-29T14:32:19;4.13;;;2.65;;
51286;SDS011;37364;46.974;18.916;2023-05-29T14:34:49;7.38;;;2.53;;
51286;SDS011;37364;46.974;18.916;2023-05-29T14:37:20;5.03;;;2.80;;
51286;SDS011;37364;46.974;18.916;2023-05-29T14:39:50;3.53;;;2.80;;
51286;SDS011;37364;46.974;18.916;2023-05-29T14:42:23;4.28;;;2.72;;
51286;SDS011;37364;46.974;18.916;2023-05-29T14:44:53;12.38;;;2.83;;
51286;SDS011;37364;46.974;18.916;2023-05-29T14:47:23;3.58;;;3.00;;
51286;SDS011;37364;46.974;18.916;2023-05-29T14:49:53;8.10;;;2.58;;
51286;SDS011;37364;46.974;18.916;2023-05-29T14:52:23;2.75;;;2.55;;
51286;SDS011;37364;46.974;18.916;2023-05-29T14:54:54;4.95;;;2.60;;
51286;SDS011;37364;46.974;18.916;2023-05-29T14:57:29;4.63;;;3.35;;
51286;SDS011;37364;46.974;18.916;2023-05-29T15:00:01;3.15;;;2.95;;
51286;SDS011;37364;46.974;18.916;2023-05-29T15:02:33;3.35;;;3.05;;
51286;SDS011;37364;46.974;18.916;2023-05-29T15:05:06;3.70;;;2.95;;
51286;SDS011;37364;46.974;18.916;2023-05-29T15:07:37;3.65;;;3.00;;
51286;SDS011;37364;46.974;18.916;2023-05-29T15:10:07;3.08;;;2.58;;
51286;SDS011;37364;46.974;18.916;2023-05-29T15:12:40;3.00;;;2.80;;
51286;SDS011;37364;46.974;18.916;2023-05-29T15:15:11;3.88;;;3.20;;
51286;SDS011;37364;46.974;18.916;2023-05-29T15:17:41;4.20;;;2.95;;
51286;SDS011;37364;46.974;18.916;2023-05-29T15:20:13;7.10;;;3.22;;
51286;SDS011;37364;46.974;18.916;2023-05-29T15:22:45;5.00;;;4.00;;